createdAt,value
2022-08-17T00:00:52.489Z,15.50
2022-08-17T00:02:26.901Z,13.00
2022-08-17T00:03:58.928Z,12.88
2022-08-17T00:05:30.820Z,13.15
2022-08-17T00:07:04.049Z,12.37
2022-08-17T00:08:42.233Z,11.78
2022-08-17T00:10:14.604Z,12.88
2022-08-17T00:12:41.309Z,14.16
2022-08-17T00:14:21.223Z,13.91
2022-08-17T00:15:53.034Z,16.86
2022-08-17T00:17:24.812Z,14.42
2022-08-17T00:19:07.363Z,13.70
2022-08-17T00:20:40.447Z,12.52
2022-08-17T00:22:31.501Z,12.44
2022-08-17T00:24:12.058Z,11.91
2022-08-17T00:25:43.958Z,11.20
2022-08-17T00:27:15.913Z,11.29
2022-08-17T00:28:47.792Z,11.53
2022-08-17T00:30:19.432Z,13.51
2022-08-17T00:31:51.149Z,12.40
2022-08-17T00:33:23.675Z,12.55
2022-08-17T00:35:00.588Z,12.12
2022-08-17T00:36:32.468Z,11.58
2022-08-17T00:38:04.436Z,11.30
2022-08-17T00:39:38.134Z,12.02
2022-08-17T00:41:09.907Z,10.30
2022-08-17T00:42:41.529Z,11.62
2022-08-17T00:44:13.459Z,12.27
2022-08-17T00:45:45.359Z,12.00
2022-08-17T00:47:21.961Z,13.69
2022-08-17T00:48:53.961Z,12.58
2022-08-17T00:50:25.694Z,12.34
2022-08-17T00:51:57.341Z,12.76
2022-08-17T00:53:29.078Z,12.97
2022-08-17T00:55:00.779Z,14.82
2022-08-17T00:56:32.324Z,11.89
2022-08-17T00:58:09.330Z,13.03
2022-08-17T00:59:41.219Z,13.37
2022-08-17T01:01:21.738Z,12.30
2022-08-17T01:02:53.897Z,9.48
2022-08-17T01:04:25.716Z,10.07
2022-08-17T01:05:57.481Z,11.50
2022-08-17T01:07:29.434Z,12.97
2022-08-17T01:09:01.417Z,11.47
2022-08-17T01:10:57.393Z,12.12
2022-08-17T01:12:32.572Z,12.70
2022-08-17T01:14:10.025Z,12.99
2022-08-17T01:15:41.788Z,11.97
2022-08-17T01:17:17.908Z,10.05
2022-08-17T01:18:49.590Z,11.85
2022-08-17T01:20:22.036Z,11.55
2022-08-17T01:21:54.033Z,9.84
2022-08-17T01:23:25.740Z,13.91
2022-08-17T01:25:02.498Z,12.56
2022-08-17T01:26:39.238Z,10.90
2022-08-17T01:28:10.988Z,11.74
2022-08-17T01:30:05.384Z,12.15
2022-08-17T01:32:29.617Z,12.65
2022-08-17T01:34:06.669Z,11.11
2022-08-17T01:35:38.886Z,12.45
2022-08-17T01:37:10.723Z,12.32
2022-08-17T01:38:42.711Z,11.88
2022-08-17T01:40:14.892Z,11.06
2022-08-17T01:41:46.673Z,11.66
2022-08-17T01:43:18.390Z,11.65
2022-08-17T01:44:50.212Z,13.54
2022-08-17T01:46:26.987Z,13.31
2022-08-17T01:47:58.664Z,13.63
2022-08-17T01:49:30.264Z,12.41
2022-08-17T01:51:01.823Z,12.47
2022-08-17T01:52:33.880Z,16.56
2022-08-17T01:54:05.546Z,12.87
2022-08-17T01:55:37.315Z,12.67
2022-08-17T01:57:09.112Z,11.15
2022-08-17T01:58:40.892Z,13.58
2022-08-17T02:00:12.946Z,11.25
2022-08-17T02:01:45.016Z,10.79
2022-08-17T02:03:16.486Z,10.09
2022-08-17T02:04:48.640Z,13.29
2022-08-17T02:06:27.166Z,11.62
2022-08-17T02:08:00.817Z,11.85
2022-08-17T02:09:32.590Z,11.38
2022-08-17T02:11:04.885Z,10.57
2022-08-17T02:12:43.260Z,10.54
2022-08-17T02:14:15.252Z,11.65
2022-08-17T02:15:47.141Z,11.46
2022-08-17T02:17:18.833Z,12.55
2022-08-17T02:18:50.606Z,11.27
2022-08-17T02:20:36.432Z,11.71
2022-08-17T02:22:14.518Z,11.57
2022-08-17T02:23:46.297Z,10.86
2022-08-17T02:25:18.191Z,9.46
2022-08-17T02:26:50.123Z,11.07
2022-08-17T02:28:21.762Z,11.79
2022-08-17T02:29:53.523Z,10.51
2022-08-17T02:31:25.186Z,10.08
2022-08-17T02:32:57.209Z,11.03
2022-08-17T02:34:29.232Z,11.80
2022-08-17T02:36:00.909Z,10.54
2022-08-17T02:37:32.696Z,10.01
2022-08-17T02:39:04.311Z,11.19
2022-08-17T02:40:36.742Z,9.57
2022-08-17T02:42:09.535Z,13.44
2022-08-17T02:43:41.442Z,10.20
2022-08-17T02:45:13.304Z,11.49
2022-08-17T02:46:44.907Z,11.98
2022-08-17T02:48:16.722Z,10.24
2022-08-17T02:50:03.669Z,11.98
2022-08-17T02:51:35.611Z,10.45
2022-08-17T02:53:07.607Z,12.98
2022-08-17T02:54:42.258Z,12.63
2022-08-17T02:56:14.538Z,8.82
2022-08-17T02:57:46.609Z,9.12
2022-08-17T02:59:18.402Z,10.18
2022-08-17T03:00:50.523Z,10.61
2022-08-17T03:02:22.503Z,9.84
2022-08-17T03:03:54.407Z,9.58
2022-08-17T03:05:25.988Z,9.12
2022-08-17T03:06:57.894Z,11.59
2022-08-17T03:08:29.689Z,10.00
2022-08-17T03:10:01.555Z,9.54
2022-08-17T03:11:33.732Z,9.70
2022-08-17T03:13:05.515Z,9.06
2022-08-17T03:14:41.266Z,11.72
2022-08-17T03:16:13.512Z,9.30
2022-08-17T03:17:45.660Z,9.68
2022-08-17T03:19:22.563Z,9.71
2022-08-17T03:20:54.513Z,8.78
2022-08-17T03:22:36.165Z,11.23
2022-08-17T03:24:10.435Z,8.47
2022-08-17T03:25:44.047Z,8.28
2022-08-17T03:27:15.777Z,8.71
2022-08-17T03:28:47.825Z,8.31
2022-08-17T03:30:19.508Z,9.65
2022-08-17T03:31:53.021Z,8.31
2022-08-17T03:33:24.622Z,7.63
2022-08-17T03:34:56.176Z,7.67
2022-08-17T03:36:28.363Z,8.89
2022-08-17T03:38:01.213Z,9.08
2022-08-17T03:39:33.071Z,8.06
2022-08-17T03:41:04.924Z,10.48
2022-08-17T03:42:36.543Z,9.15
2022-08-17T03:44:13.997Z,7.27
2022-08-17T03:45:45.713Z,8.39
2022-08-17T03:47:17.674Z,9.72
2022-08-17T03:48:49.487Z,7.08
2022-08-17T03:50:21.294Z,7.36
2022-08-17T03:51:53.094Z,6.29
2022-08-17T03:53:24.562Z,9.94
2022-08-17T03:54:56.610Z,10.24
2022-08-17T03:56:28.453Z,8.45
2022-08-17T03:58:00.268Z,10.93
2022-08-17T03:59:32.159Z,11.32
2022-08-17T04:01:04.039Z,10.75
2022-08-17T04:02:36.368Z,8.63
2022-08-17T04:04:09.456Z,7.47
2022-08-17T04:05:41.129Z,8.16
2022-08-17T04:07:13.125Z,8.10
2022-08-17T04:08:45.331Z,8.96
2022-08-17T04:10:17.185Z,6.55
2022-08-17T04:11:49.050Z,7.38
2022-08-17T04:13:24.894Z,7.27
2022-08-17T04:14:57.724Z,6.88
2022-08-17T04:16:29.695Z,8.24
2022-08-17T04:18:01.441Z,8.13
2022-08-17T04:19:38.617Z,7.87
2022-08-17T04:21:10.301Z,5.91
2022-08-17T04:22:42.306Z,9.47
2022-08-17T04:24:14.007Z,7.47
2022-08-17T04:26:00.028Z,9.14
2022-08-17T04:27:31.814Z,7.97
2022-08-17T04:29:03.431Z,8.29
2022-08-17T04:30:35.155Z,9.22
2022-08-17T04:32:07.020Z,8.63
2022-08-17T04:33:38.760Z,8.05
2022-08-17T04:35:11.072Z,10.92
2022-08-17T04:36:50.334Z,7.99
2022-08-17T04:38:22.282Z,8.42
2022-08-17T04:39:54.031Z,7.16
2022-08-17T04:41:25.872Z,8.41
2022-08-17T04:43:00.004Z,7.46
2022-08-17T04:44:38.203Z,6.73
2022-08-17T04:46:09.840Z,7.46
2022-08-17T04:47:41.772Z,8.68
2022-08-17T04:49:13.701Z,9.24
2022-08-17T04:50:45.510Z,9.14
2022-08-17T04:52:29.853Z,7.70
2022-08-17T04:54:15.578Z,9.18
2022-08-17T04:55:47.773Z,8.55
2022-08-17T04:57:19.562Z,8.90
2022-08-17T04:58:51.490Z,9.84
2022-08-17T05:00:22.972Z,9.69
2022-08-17T05:01:54.675Z,8.62
2022-08-17T05:03:26.298Z,8.07
2022-08-17T05:04:58.286Z,7.12
2022-08-17T05:06:30.270Z,9.55
2022-08-17T05:08:02.227Z,8.35
2022-08-17T05:09:34.122Z,10.45
2022-08-17T05:11:07.121Z,7.51
2022-08-17T05:12:38.991Z,9.84
2022-08-17T05:14:10.866Z,6.89
2022-08-17T05:15:44.885Z,6.30
2022-08-17T05:17:17.214Z,9.37
2022-08-17T05:18:49.506Z,9.20
2022-08-17T05:20:21.304Z,8.70
2022-08-17T05:21:52.833Z,8.74
2022-08-17T05:23:24.887Z,7.98
2022-08-17T05:24:56.739Z,6.58
2022-08-17T05:26:29.657Z,7.93
2022-08-17T05:28:02.258Z,8.64
2022-08-17T05:29:35.166Z,7.64
2022-08-17T05:31:12.877Z,7.79
2022-08-17T05:32:44.797Z,10.17
2022-08-17T05:34:16.636Z,8.53
2022-08-17T05:35:48.407Z,8.28
2022-08-17T05:37:20.343Z,8.34
2022-08-17T05:38:52.161Z,9.42
2022-08-17T05:40:23.872Z,8.98
2022-08-17T05:42:05.583Z,7.17
2022-08-17T05:43:37.547Z,8.62
2022-08-17T05:45:09.489Z,8.99
2022-08-17T05:46:41.256Z,8.70
2022-08-17T05:48:12.895Z,8.68
2022-08-17T05:49:49.939Z,8.21
2022-08-17T05:51:21.925Z,9.21
2022-08-17T05:52:53.577Z,7.08
2022-08-17T05:54:25.464Z,6.88
2022-08-17T05:55:57.087Z,6.75
2022-08-17T05:57:28.901Z,8.65
2022-08-17T05:59:01.048Z,10.02
2022-08-17T06:00:33.034Z,10.46
2022-08-17T06:02:05.639Z,10.76
2022-08-17T06:03:37.186Z,8.58
2022-08-17T06:05:09.142Z,10.55
2022-08-17T06:06:40.806Z,8.77
2022-08-17T06:08:12.670Z,9.95
2022-08-17T06:09:44.462Z,9.32
2022-08-17T06:11:16.312Z,10.87
2022-08-17T06:12:51.868Z,10.66
2022-08-17T06:14:23.935Z,7.70
2022-08-17T06:15:55.481Z,8.18
2022-08-17T06:17:32.433Z,10.14
2022-08-17T06:19:04.227Z,8.18
2022-08-17T06:20:35.888Z,8.67
2022-08-17T06:22:07.551Z,9.41
2022-08-17T06:23:39.371Z,8.01
2022-08-17T06:25:11.015Z,8.08
2022-08-17T06:26:43.505Z,8.04
2022-08-17T06:28:15.386Z,9.16
2022-08-17T06:29:47.279Z,7.86
2022-08-17T06:31:19.042Z,7.91
2022-08-17T06:32:55.971Z,7.82
2022-08-17T06:34:32.546Z,8.46
2022-08-17T06:36:09.646Z,9.38
2022-08-17T06:37:41.338Z,6.70
2022-08-17T06:39:13.341Z,8.46
2022-08-17T06:40:44.947Z,8.42
2022-08-17T06:43:02.465Z,8.89
2022-08-17T06:44:50.302Z,10.72
2022-08-17T06:46:22.844Z,10.54
2022-08-17T06:47:54.540Z,9.28
2022-08-17T06:49:26.210Z,9.75
2022-08-17T06:50:57.810Z,10.77
2022-08-17T06:52:46.107Z,9.93
2022-08-17T06:54:19.022Z,9.53
2022-08-17T06:55:50.872Z,10.01
2022-08-17T06:57:22.703Z,9.38
2022-08-17T06:58:54.242Z,10.70
2022-08-17T07:00:30.994Z,10.51
2022-08-17T07:02:02.994Z,7.02
2022-08-17T07:03:34.674Z,10.85
2022-08-17T07:05:06.245Z,10.46
2022-08-17T07:06:38.054Z,9.22
2022-08-17T07:08:10.462Z,9.23
2022-08-17T07:09:47.249Z,10.06
2022-08-17T07:11:18.981Z,8.19
2022-08-17T07:12:55.786Z,9.75
2022-08-17T07:14:27.899Z,9.70
2022-08-17T07:15:59.945Z,9.25
2022-08-17T07:17:46.676Z,8.49
2022-08-17T07:19:19.715Z,7.68
2022-08-17T07:20:51.446Z,7.20
2022-08-17T07:22:23.450Z,6.86
2022-08-17T07:23:55.084Z,6.33
2022-08-17T07:25:31.749Z,9.14
2022-08-17T07:27:03.445Z,6.83
2022-08-17T07:28:35.455Z,8.88
2022-08-17T07:30:10.792Z,11.63
2022-08-17T07:31:42.963Z,8.98
2022-08-17T07:33:14.757Z,8.63
2022-08-17T07:34:46.454Z,10.33
2022-08-17T07:36:18.227Z,11.89
2022-08-17T07:37:50.260Z,9.81
2022-08-17T07:39:22.168Z,9.13
2022-08-17T07:40:53.989Z,7.67
2022-08-17T07:42:25.806Z,9.91
2022-08-17T07:43:57.780Z,7.75
2022-08-17T07:45:29.467Z,7.48
2022-08-17T07:47:01.000Z,9.27
2022-08-17T07:48:32.651Z,8.20
2022-08-17T07:50:04.637Z,9.44
2022-08-17T07:51:36.808Z,8.40
2022-08-17T07:53:13.697Z,8.26
2022-08-17T07:54:45.891Z,10.06
2022-08-17T07:56:17.550Z,9.74
2022-08-17T07:57:49.708Z,12.36
2022-08-17T07:59:23.622Z,8.27
2022-08-17T08:00:55.859Z,6.92
2022-08-17T08:02:31.756Z,8.86
2022-08-17T08:04:05.764Z,11.02
2022-08-17T08:05:49.695Z,10.85
2022-08-17T08:07:22.690Z,12.77
2022-08-17T08:08:54.496Z,11.24
2022-08-17T08:10:26.601Z,10.69
2022-08-17T08:11:58.341Z,11.36
2022-08-17T08:13:31.250Z,8.17
2022-08-17T08:15:02.962Z,7.48
2022-08-17T08:16:34.969Z,7.81
2022-08-17T08:18:06.528Z,8.38
2022-08-17T08:19:38.328Z,8.13
2022-08-17T08:21:10.084Z,7.54
2022-08-17T08:22:41.973Z,7.67
2022-08-17T08:24:13.626Z,6.14
2022-08-17T08:25:45.474Z,7.95
2022-08-17T08:27:20.533Z,6.60
2022-08-17T08:28:52.371Z,5.49
2022-08-17T08:30:24.275Z,7.43
2022-08-17T08:31:55.992Z,8.76
2022-08-17T08:33:27.933Z,7.16
2022-08-17T08:35:02.818Z,6.81
2022-08-17T08:37:14.188Z,7.00
2022-08-17T08:38:49.600Z,5.72
2022-08-17T08:40:21.283Z,8.24
2022-08-17T08:41:53.108Z,6.82
2022-08-17T08:43:24.930Z,6.29
2022-08-17T08:45:00.535Z,5.96
2022-08-17T08:46:36.781Z,7.65
2022-08-17T08:48:23.145Z,7.81
2022-08-17T08:50:37.874Z,6.67
2022-08-17T08:52:10.173Z,8.42
2022-08-17T08:53:41.916Z,7.62
2022-08-17T08:55:18.544Z,6.55
2022-08-17T08:57:19.783Z,7.71
2022-08-17T08:58:56.207Z,6.95
2022-08-17T09:00:27.872Z,7.88
2022-08-17T09:01:59.634Z,7.39
2022-08-17T09:03:49.722Z,9.20
2022-08-17T09:05:23.903Z,9.54
2022-08-17T09:07:00.469Z,9.24
2022-08-17T09:08:37.105Z,7.56
2022-08-17T09:10:08.675Z,6.59
2022-08-17T09:12:02.282Z,8.13
2022-08-17T09:13:35.052Z,8.05
2022-08-17T09:15:10.911Z,7.91
2022-08-17T09:16:44.852Z,7.20
2022-08-17T09:19:00.203Z,6.29
2022-08-17T09:20:35.471Z,7.14
2022-08-17T09:22:07.315Z,8.16
2022-08-17T09:23:39.118Z,7.84
2022-08-17T09:25:11.270Z,7.81
2022-08-17T09:26:42.930Z,7.03
2022-08-17T09:28:18.121Z,10.88
2022-08-17T09:29:54.928Z,6.10
2022-08-17T09:31:29.940Z,5.41
2022-08-17T09:33:04.496Z,6.40
2022-08-17T09:34:36.154Z,7.26
2022-08-17T09:36:08.373Z,8.18
2022-08-17T09:37:40.150Z,6.46
2022-08-17T09:39:11.827Z,7.13
2022-08-17T09:40:43.682Z,5.14
2022-08-17T09:42:15.743Z,6.09
2022-08-17T09:43:47.501Z,6.32
2022-08-17T09:45:19.245Z,8.20
2022-08-17T09:46:56.124Z,6.29
2022-08-17T09:48:28.015Z,7.94
2022-08-17T09:50:04.784Z,7.00
2022-08-17T09:51:36.428Z,7.51
2022-08-17T09:53:08.197Z,7.41
2022-08-17T09:54:40.554Z,7.35
2022-08-17T09:56:17.582Z,6.07
2022-08-17T09:57:49.568Z,9.46
2022-08-17T09:59:21.678Z,7.94
2022-08-17T10:00:53.565Z,8.39
2022-08-17T10:02:29.413Z,8.08
2022-08-17T10:04:06.163Z,9.19
2022-08-17T10:05:38.208Z,7.68
2022-08-17T10:07:09.797Z,8.05
2022-08-17T10:08:41.491Z,8.65
2022-08-17T10:10:18.320Z,8.78
2022-08-17T10:11:51.995Z,9.63
2022-08-17T10:13:24.271Z,8.06
2022-08-17T10:14:56.316Z,10.82
2022-08-17T10:16:28.915Z,10.11
2022-08-17T10:18:05.798Z,9.67
2022-08-17T10:19:37.595Z,9.57
2022-08-17T10:21:09.590Z,9.52
2022-08-17T10:22:41.580Z,7.99
2022-08-17T10:24:13.510Z,8.63
2022-08-17T10:25:55.081Z,8.41
2022-08-17T10:27:27.381Z,8.47
2022-08-17T10:28:59.109Z,8.43
2022-08-17T10:30:30.623Z,7.92
2022-08-17T10:32:02.639Z,9.46
2022-08-17T10:33:34.386Z,8.49
2022-08-17T10:35:06.049Z,10.16
2022-08-17T10:36:38.334Z,9.70
2022-08-17T10:38:09.960Z,9.63
2022-08-17T10:39:52.624Z,8.23
2022-08-17T10:41:25.017Z,10.46
2022-08-17T10:42:57.056Z,9.62
2022-08-17T10:44:40.392Z,8.61
2022-08-17T10:46:30.845Z,8.16
2022-08-17T10:48:06.398Z,8.65
2022-08-17T10:49:38.720Z,8.18
2022-08-17T10:51:15.438Z,10.93
2022-08-17T10:52:47.186Z,8.33
2022-08-17T10:54:19.147Z,11.91
2022-08-17T10:55:50.856Z,11.64
2022-08-17T10:57:22.503Z,11.10
2022-08-17T10:58:54.161Z,9.61
2022-08-17T11:00:27.751Z,13.86
2022-08-17T11:01:59.854Z,11.24
2022-08-17T11:03:31.653Z,12.42
2022-08-17T11:05:03.817Z,10.55
2022-08-17T11:06:35.641Z,12.63
2022-08-17T11:08:07.530Z,13.15
2022-08-17T11:09:39.257Z,11.76
2022-08-17T11:11:10.764Z,13.41
2022-08-17T11:12:42.588Z,14.02
2022-08-17T11:14:14.424Z,12.80
2022-08-17T11:15:51.356Z,11.87
2022-08-17T11:17:23.178Z,13.12
2022-08-17T11:18:54.744Z,10.54
2022-08-17T11:20:26.532Z,12.46
2022-08-17T11:21:58.579Z,12.44
2022-08-17T11:23:30.428Z,12.77
2022-08-17T11:25:02.323Z,14.13
2022-08-17T11:26:39.098Z,12.63
2022-08-17T11:28:15.966Z,15.12
2022-08-17T11:29:50.660Z,13.74
2022-08-17T11:31:38.805Z,12.93
2022-08-17T11:33:16.479Z,13.35
2022-08-17T11:34:52.945Z,16.76
2022-08-17T11:36:47.550Z,13.56
2022-08-17T11:38:19.823Z,15.18
2022-08-17T11:39:57.010Z,14.65
2022-08-17T11:41:29.052Z,16.33
2022-08-17T11:43:00.852Z,16.02
2022-08-17T11:44:32.545Z,14.80
2022-08-17T11:46:04.392Z,15.53
2022-08-17T11:47:41.222Z,15.76
2022-08-17T11:49:13.732Z,14.74
2022-08-17T11:50:45.780Z,15.34
2022-08-17T11:52:17.720Z,17.04
2022-08-17T11:53:49.576Z,13.84
2022-08-17T11:55:34.990Z,15.80
2022-08-17T11:57:09.298Z,14.15
2022-08-17T11:58:41.036Z,16.03
2022-08-17T12:00:12.687Z,16.67
2022-08-17T12:01:44.772Z,15.12
2022-08-17T12:03:16.585Z,16.99
2022-08-17T12:04:53.415Z,16.60
2022-08-17T12:06:30.478Z,17.22
2022-08-17T12:08:02.907Z,19.61
2022-08-17T12:09:34.515Z,17.84
2022-08-17T12:11:11.188Z,19.47
2022-08-17T12:12:43.024Z,18.81
2022-08-17T12:14:19.211Z,17.31
2022-08-17T12:15:53.236Z,15.66
2022-08-17T12:17:39.669Z,18.42
2022-08-17T12:19:23.822Z,20.36
2022-08-17T12:20:56.863Z,18.72
2022-08-17T12:22:28.747Z,18.68
2022-08-17T12:24:00.900Z,18.47
2022-08-17T12:25:32.587Z,17.86
2022-08-17T12:27:04.267Z,19.60
2022-08-17T12:28:36.185Z,20.70
2022-08-17T12:30:08.423Z,20.50
2022-08-17T12:31:40.320Z,20.16
2022-08-17T12:33:12.289Z,20.48
2022-08-17T12:34:43.805Z,21.60
2022-08-17T12:36:15.425Z,20.47
2022-08-17T12:37:47.283Z,22.52
2022-08-17T12:39:21.326Z,22.69
2022-08-17T12:40:54.337Z,24.42
2022-08-17T12:42:30.059Z,21.33
2022-08-17T12:44:02.540Z,22.88
2022-08-17T12:45:35.543Z,23.63
2022-08-17T12:47:07.619Z,22.39
2022-08-17T12:48:39.261Z,24.16
2022-08-17T12:50:29.407Z,24.15
2022-08-17T12:52:01.716Z,25.82
2022-08-17T12:53:34.190Z,23.34
2022-08-17T12:55:06.139Z,24.83
2022-08-17T12:56:37.766Z,24.42
2022-08-17T12:58:14.003Z,23.08
2022-08-17T12:59:46.391Z,25.58
2022-08-17T13:01:18.549Z,25.62
2022-08-17T13:02:50.716Z,24.16
2022-08-17T13:04:29.569Z,25.22
2022-08-17T13:06:02.099Z,26.73
2022-08-17T13:07:33.910Z,25.33
2022-08-17T13:09:05.860Z,25.78
2022-08-17T13:10:37.934Z,25.98
2022-08-17T13:12:09.835Z,24.05
2022-08-17T13:13:41.787Z,24.33
2022-08-17T13:15:13.992Z,25.52
2022-08-17T13:16:45.682Z,27.92
2022-08-17T13:18:17.449Z,26.26
2022-08-17T13:19:49.403Z,23.29
2022-08-17T13:21:21.400Z,29.03
2022-08-17T13:22:53.071Z,24.08
2022-08-17T13:24:26.729Z,24.29
2022-08-17T13:25:58.543Z,24.08
2022-08-17T13:27:30.190Z,21.69
2022-08-17T13:29:01.890Z,21.43
2022-08-17T13:30:33.812Z,23.83
2022-08-17T13:32:13.026Z,24.68
2022-08-17T13:33:45.678Z,23.66
2022-08-17T13:35:28.265Z,25.15
2022-08-17T13:37:02.974Z,23.02
2022-08-17T13:38:43.865Z,24.98
2022-08-17T13:40:20.595Z,23.15
2022-08-17T13:41:52.415Z,24.17
2022-08-17T13:43:24.090Z,25.51
2022-08-17T13:44:55.920Z,23.95
2022-08-17T13:46:27.679Z,25.81
2022-08-17T13:47:59.409Z,25.96
2022-08-17T13:49:48.260Z,23.17
2022-08-17T13:51:21.084Z,25.07
2022-08-17T13:52:52.821Z,22.16
2022-08-17T13:54:24.558Z,21.83
2022-08-17T13:55:56.271Z,23.47
2022-08-17T13:57:28.140Z,22.78
2022-08-17T13:59:00.321Z,22.41
2022-08-17T14:00:32.005Z,21.92
2022-08-17T14:02:04.017Z,22.40
2022-08-17T14:03:41.144Z,25.77
2022-08-17T14:05:16.191Z,24.79
2022-08-17T14:06:51.755Z,26.22
2022-08-17T14:08:25.155Z,24.73
2022-08-17T14:09:56.803Z,27.06
2022-08-17T14:11:57.948Z,29.31
2022-08-17T14:13:29.791Z,26.14
2022-08-17T14:15:01.570Z,29.10
2022-08-17T14:16:33.905Z,26.85
2022-08-17T14:18:05.625Z,25.92
2022-08-17T14:19:37.503Z,24.60
2022-08-17T14:21:09.128Z,26.70
2022-08-17T14:22:41.026Z,23.48
2022-08-17T14:24:12.752Z,24.12
2022-08-17T14:25:44.444Z,24.61
2022-08-17T14:27:16.170Z,24.88
2022-08-17T14:28:56.588Z,26.53
2022-08-17T14:30:30.132Z,24.52
2022-08-17T14:32:01.987Z,26.46
2022-08-17T14:33:34.043Z,27.97
2022-08-17T14:35:05.905Z,25.26
2022-08-17T14:36:37.638Z,22.87
2022-08-17T14:38:09.783Z,21.65
2022-08-17T14:39:41.791Z,22.26
2022-08-17T14:41:15.585Z,22.27
2022-08-17T14:42:50.476Z,25.22
2022-08-17T14:44:22.217Z,22.83
2022-08-17T14:45:54.179Z,24.97
2022-08-17T14:47:26.047Z,23.14
2022-08-17T14:48:58.026Z,26.34
2022-08-17T14:50:30.041Z,25.77
2022-08-17T14:52:03.648Z,24.89
2022-08-17T14:53:35.499Z,21.28
2022-08-17T14:55:07.274Z,25.06
2022-08-17T14:56:39.038Z,24.76
2022-08-17T14:58:11.408Z,23.30
2022-08-17T14:59:44.370Z,23.89
2022-08-17T15:01:16.290Z,24.85
2022-08-17T15:02:47.991Z,24.13
2022-08-17T15:04:19.951Z,25.52
2022-08-17T15:05:51.573Z,24.85
2022-08-17T15:07:26.171Z,28.25
2022-08-17T15:09:02.780Z,32.03
2022-08-17T15:10:34.600Z,31.24
2022-08-17T15:12:06.528Z,28.07
2022-08-17T15:13:52.555Z,30.46
2022-08-17T15:15:24.943Z,31.28
2022-08-17T15:16:56.723Z,32.08
2022-08-17T15:18:28.555Z,34.86
2022-08-17T15:20:00.268Z,36.21
2022-08-17T15:21:33.291Z,32.87
2022-08-17T15:23:05.098Z,32.78
2022-08-17T15:24:37.982Z,33.99
2022-08-17T15:26:09.645Z,33.15
2022-08-17T15:27:41.262Z,37.76
2022-08-17T15:29:18.005Z,37.22
2022-08-17T15:30:50.104Z,36.35
2022-08-17T15:32:21.866Z,36.59
2022-08-17T15:33:53.576Z,36.28
2022-08-17T15:35:28.119Z,37.89
2022-08-17T15:37:00.322Z,39.26
2022-08-17T15:38:31.965Z,41.10
2022-08-17T15:40:03.865Z,37.49
2022-08-17T15:41:35.867Z,38.29
2022-08-17T15:43:07.673Z,36.63
2022-08-17T15:44:39.358Z,35.77
2022-08-17T15:46:11.243Z,36.38
2022-08-17T15:47:44.408Z,36.63
2022-08-17T15:49:16.219Z,34.94
2022-08-17T15:50:48.046Z,32.64
2022-08-17T15:52:19.822Z,35.60
2022-08-17T15:53:51.491Z,36.69
2022-08-17T15:55:28.320Z,37.35
2022-08-17T15:57:00.016Z,36.96
2022-08-17T15:58:33.553Z,39.06
2022-08-17T16:00:05.410Z,37.60
2022-08-17T16:03:13.359Z,38.75
2022-08-17T16:05:07.218Z,37.20
2022-08-17T16:06:42.007Z,38.85
2022-08-17T16:08:18.496Z,36.92
2022-08-17T16:09:52.449Z,35.62
2022-08-17T16:11:24.291Z,33.93
2022-08-17T16:12:56.335Z,34.75
2022-08-17T16:14:32.423Z,39.82
2022-08-17T16:16:12.056Z,38.77
2022-08-17T16:17:43.844Z,38.24
2022-08-17T16:19:15.725Z,40.42
2022-08-17T16:20:47.556Z,41.93
2022-08-17T16:22:19.249Z,43.04
2022-08-17T16:23:52.149Z,39.88
2022-08-17T16:25:40.304Z,41.62
2022-08-17T16:27:26.326Z,38.68
2022-08-17T16:28:58.000Z,37.42
2022-08-17T16:30:29.856Z,36.20
2022-08-17T16:32:03.130Z,36.63
2022-08-17T16:33:34.814Z,36.84
2022-08-17T16:35:11.465Z,36.02
2022-08-17T16:36:55.664Z,39.88
2022-08-17T16:38:33.128Z,39.64
2022-08-17T16:40:04.849Z,39.97
2022-08-17T16:41:36.998Z,45.21
2022-08-17T16:43:08.704Z,46.53
2022-08-17T16:44:40.677Z,48.43
2022-08-17T16:46:17.353Z,51.28
2022-08-17T16:47:49.193Z,49.84
2022-08-17T16:49:36.355Z,49.94
2022-08-17T16:51:09.530Z,56.32
2022-08-17T16:52:46.178Z,55.80
2022-08-17T16:54:17.876Z,56.74
2022-08-17T16:55:49.727Z,54.93
2022-08-17T16:57:21.494Z,55.86
2022-08-17T16:58:53.250Z,54.69
2022-08-17T17:00:24.958Z,56.40
2022-08-17T17:01:57.087Z,57.33
2022-08-17T17:03:33.978Z,57.28
2022-08-17T17:05:05.747Z,54.94
2022-08-17T17:06:37.434Z,54.70
2022-08-17T17:08:09.519Z,48.97
2022-08-17T17:09:41.106Z,47.72
2022-08-17T17:11:18.078Z,47.79
2022-08-17T17:13:01.965Z,43.95
2022-08-17T17:14:35.847Z,43.06
2022-08-17T17:16:12.755Z,39.93
2022-08-17T17:17:44.960Z,37.50
2022-08-17T17:19:16.663Z,37.51
2022-08-17T17:20:58.423Z,37.73
2022-08-17T17:22:30.117Z,39.23
2022-08-17T17:24:07.012Z,35.71
2022-08-17T17:25:39.119Z,36.34
2022-08-17T17:27:10.807Z,37.64
2022-08-17T17:28:42.908Z,40.12
2022-08-17T17:30:14.661Z,34.53
2022-08-17T17:31:46.539Z,32.72
2022-08-17T17:33:18.627Z,35.58
2022-08-17T17:34:51.252Z,36.81
2022-08-17T17:36:23.546Z,35.75
2022-08-17T17:37:55.536Z,38.96
2022-08-17T17:39:33.216Z,39.63
2022-08-17T17:41:05.759Z,37.47
2022-08-17T17:42:37.662Z,38.54
2022-08-17T17:44:09.438Z,36.07
2022-08-17T17:45:46.475Z,36.00
2022-08-17T17:47:18.781Z,37.13
2022-08-17T17:48:56.066Z,39.53
2022-08-17T17:50:28.321Z,38.24
2022-08-17T17:52:08.501Z,37.50
2022-08-17T17:53:43.550Z,36.94
2022-08-17T17:55:16.244Z,39.69
2022-08-17T17:56:48.135Z,37.93
2022-08-17T17:58:20.363Z,37.04
2022-08-17T17:59:52.166Z,35.29
2022-08-17T18:01:24.197Z,34.79
2022-08-17T18:02:56.331Z,36.38
2022-08-17T18:04:48.623Z,37.24
2022-08-17T18:06:21.270Z,36.64
2022-08-17T18:07:58.443Z,33.18
2022-08-17T18:09:32.765Z,34.26
2022-08-17T18:11:06.358Z,31.78
2022-08-17T18:12:38.234Z,33.82
2022-08-17T18:14:10.190Z,36.27
2022-08-17T18:15:41.943Z,35.13
2022-08-17T18:17:19.668Z,33.60
2022-08-17T18:19:02.065Z,34.99
2022-08-17T18:20:43.337Z,36.54
2022-08-17T18:22:27.681Z,35.85
2022-08-17T18:24:00.225Z,34.02
2022-08-17T18:25:33.541Z,34.74
2022-08-17T18:27:08.370Z,35.22
2022-08-17T18:28:40.632Z,35.77
2022-08-17T18:30:12.648Z,34.93
2022-08-17T18:31:49.247Z,33.59
2022-08-17T18:33:26.276Z,32.67
2022-08-17T18:34:57.960Z,33.57
2022-08-17T18:36:29.902Z,31.36
2022-08-17T18:38:02.134Z,31.39
2022-08-17T18:39:39.029Z,31.26
2022-08-17T18:41:26.215Z,34.92
2022-08-17T18:43:23.854Z,34.72
2022-08-17T18:44:55.946Z,33.92
2022-08-17T18:46:33.429Z,34.38
2022-08-17T18:48:05.526Z,34.57
2022-08-17T18:49:37.529Z,33.04
2022-08-17T18:51:10.857Z,33.98
2022-08-17T18:52:42.864Z,33.25
2022-08-17T18:54:14.794Z,36.16
2022-08-17T18:55:52.239Z,34.36
2022-08-17T18:57:27.071Z,36.39
2022-08-17T18:58:59.318Z,37.06
2022-08-17T19:00:32.241Z,37.02
2022-08-17T19:02:11.791Z,37.20
2022-08-17T19:03:48.390Z,35.23
2022-08-17T19:05:25.453Z,34.34
2022-08-17T19:06:57.389Z,35.57
2022-08-17T19:08:35.808Z,35.27
2022-08-17T19:10:23.112Z,37.63
2022-08-17T19:11:55.311Z,36.40
2022-08-17T19:13:27.155Z,37.32
2022-08-17T19:14:58.923Z,38.71
2022-08-17T19:16:31.122Z,38.54
2022-08-17T19:18:03.209Z,36.85
2022-08-17T19:19:40.193Z,39.06
2022-08-17T19:21:26.300Z,37.81
2022-08-17T19:22:58.298Z,37.11
2022-08-17T19:24:52.035Z,40.03
2022-08-17T19:26:54.309Z,41.02
2022-08-17T19:28:28.474Z,39.80
2022-08-17T19:30:05.353Z,40.30
2022-08-17T19:31:39.729Z,40.86
2022-08-17T19:33:11.739Z,39.75
2022-08-17T19:34:44.876Z,39.20
2022-08-17T19:36:16.881Z,40.12
2022-08-17T19:37:48.766Z,40.02
2022-08-17T19:39:20.742Z,37.40
2022-08-17T19:40:53.969Z,38.73
2022-08-17T19:42:26.531Z,41.61
2022-08-17T19:43:58.776Z,40.25
2022-08-17T19:45:30.540Z,39.30
2022-08-17T19:47:02.892Z,40.41
2022-08-17T19:48:38.091Z,39.82
2022-08-17T19:50:20.780Z,40.96
2022-08-17T19:51:56.003Z,43.28
2022-08-17T19:55:45.964Z,43.70
2022-08-17T19:57:19.435Z,45.95
2022-08-17T19:58:51.524Z,44.28
2022-08-17T20:00:28.357Z,44.81
2022-08-17T20:02:01.065Z,43.92
2022-08-17T20:03:38.271Z,44.73
2022-08-17T20:05:09.812Z,45.14
2022-08-17T20:06:51.331Z,47.10
2022-08-17T20:08:23.032Z,46.92
2022-08-17T20:09:59.879Z,45.74
2022-08-17T20:11:31.673Z,43.66
2022-08-17T20:13:03.430Z,45.84
2022-08-17T20:14:34.979Z,44.29
2022-08-17T20:16:06.817Z,46.05
2022-08-17T20:17:42.557Z,41.65
2022-08-17T20:19:19.445Z,43.07
2022-08-17T20:20:51.137Z,44.89
2022-08-17T20:22:26.757Z,45.67
2022-08-17T20:23:58.540Z,46.29
2022-08-17T20:25:35.198Z,45.90
2022-08-17T20:27:07.064Z,49.61
2022-08-17T20:28:38.733Z,48.12
2022-08-17T20:30:10.442Z,47.29
2022-08-17T20:31:46.999Z,45.78